sensor_id;sensor_type;location;lat;lon;timestamp;temperature;humidity
7936;DHT22;4013;49.744;8.118;2022-07-23T00:01:29;22.90;99.90
7936;DHT22;4013;49.744;8.118;2022-07-23T00:03:56;22.90;99.90
7936;DHT22;4013;49.744;8.118;2022-07-23T00:06:23;22.90;99.90
7936;DHT22;4013;49.744;8.118;2022-07-23T00:08:51;22.90;99.90
7936;DHT22;4013;49.744;8.118;2022-07-23T00:11:19;22.80;99.90
7936;DHT22;4013;49.744;8.118;2022-07-23T00:13:47;22.80;99.90
7936;DHT22;4013;49.744;8.118;2022-07-23T00:16:14;22.70;99.90
7936;DHT22;4013;49.744;8.118;2022-07-23T00:18:41;22.50;99.90
7936;DHT22;4013;49.744;8.118;2022-07-23T00:21:08;22.40;99.90
7936;DHT22;4013;49.744;8.118;2022-07-23T00:23:35;22.40;99.90
7936;DHT22;4013;49.744;8.118;2022-07-23T00:26:02;22.40;99.90
7936;DHT22;4013;49.744;8.118;2022-07-23T00:28:30;22.30;99.90
7936;DHT22;4013;49.744;8.118;2022-07-23T00:30:57;22.20;99.90
7936;DHT22;4013;49.744;8.118;2022-07-23T00:33:24;22.30;99.90
7936;DHT22;4013;49.744;8.118;2022-07-23T00:35:51;22.20;99.90
7936;DHT22;4013;49.744;8.118;2022-07-23T00:38:17;22.20;99.90
7936;DHT22;4013;49.744;8.118;2022-07-23T00:40:44;22.30;99.90
7936;DHT22;4013;49.744;8.118;2022-07-23T00:43:11;22.30;99.90
7936;DHT22;4013;49.744;8.118;2022-07-23T00:45:39;22.30;99.90
7936;DHT22;4013;49.744;8.118;2022-07-23T00:48:06;22.20;99.90
7936;DHT22;4013;49.744;8.118;2022-07-23T00:50:33;22.20;99.90
7936;DHT22;4013;49.744;8.118;2022-07-23T00:53:00;22.10;99.90
7936;DHT22;4013;49.744;8.118;2022-07-23T00:55:27;22.00;99.90
7936;DHT22;4013;49.744;8.118;2022-07-23T00:57:55;22.00;99.90
7936;DHT22;4013;49.744;8.118;2022-07-23T01:00:22;21.80;99.90
7936;DHT22;4013;49.744;8.118;2022-07-23T01:02:50;21.80;99.90
7936;DHT22;4013;49.744;8.118;2022-07-23T01:05:17;21.80;99.90
7936;DHT22;4013;49.744;8.118;2022-07-23T01:07:48;21.80;99.90
7936;DHT22;4013;49.744;8.118;2022-07-23T01:10:15;21.70;99.90
7936;DHT22;4013;49.744;8.118;2022-07-23T01:13:02;21.60;99.90
7936;DHT22;4013;49.744;8.118;2022-07-23T01:15:30;21.60;99.90
7936;DHT22;4013;49.744;8.118;2022-07-23T01:17:58;21.50;99.90
7936;DHT22;4013;49.744;8.118;2022-07-23T01:20:25;21.40;99.90
7936;DHT22;4013;49.744;8.118;2022-07-23T01:22:54;21.40;99.90
7936;DHT22;4013;49.744;8.118;2022-07-23T01:25:21;21.30;99.90
7936;DHT22;4013;49.744;8.118;2022-07-23T01:27:48;21.40;99.90
7936;DHT22;4013;49.744;8.118;2022-07-23T01:30:15;21.40;99.90
7936;DHT22;4013;49.744;8.118;2022-07-23T01:32:42;21.50;99.90
7936;DHT22;4013;49.744;8.118;2022-07-23T01:35:09;21.60;99.90
7936;DHT22;4013;49.744;8.118;2022-07-23T01:37:37;21.50;99.90
7936;DHT22;4013;49.744;8.118;2022-07-23T01:40:06;21.50;99.90
7936;DHT22;4013;49.744;8.118;2022-07-23T01:42:33;21.50;99.90
7936;DHT22;4013;49.744;8.118;2022-07-23T01:45:02;21.60;99.90
7936;DHT22;4013;49.744;8.118;2022-07-23T01:47:29;21.50;99.90
7936;DHT22;4013;49.744;8.118;2022-07-23T01:49:56;21.50;99.90
7936;DHT22;4013;49.744;8.118;2022-07-23T01:52:23;21.40;99.90
7936;DHT22;4013;49.744;8.118;2022-07-23T01:54:50;21.30;99.90
7936;DHT22;4013;49.744;8.118;2022-07-23T01:57:18;21.40;99.90
7936;DHT22;4013;49.744;8.118;2022-07-23T01:59:45;21.40;99.90
7936;DHT22;4013;49.744;8.118;2022-07-23T02:02:12;21.20;99.90
7936;DHT22;4013;49.744;8.118;2022-07-23T02:04:39;21.20;99.90
7936;DHT22;4013;49.744;8.118;2022-07-23T02:07:06;21.20;99.90
7936;DHT22;4013;49.744;8.118;2022-07-23T02:09:33;21.30;99.90
7936;DHT22;4013;49.744;8.118;2022-07-23T02:12:00;21.20;99.90
7936;DHT22;4013;49.744;8.118;2022-07-23T02:14:28;21.20;99.90
7936;DHT22;4013;49.744;8.118;2022-07-23T02:16:55;21.20;99.90
7936;DHT22;4013;49.744;8.118;2022-07-23T02:19:22;21.20;99.90
7936;DHT22;4013;49.744;8.118;2022-07-23T02:21:49;21.20;99.90
7936;DHT22;4013;49.744;8.118;2022-07-23T02:24:16;21.20;99.90
7936;DHT22;4013;49.744;8.118;2022-07-23T02:26:43;21.20;99.90
7936;DHT22;4013;49.744;8.118;2022-07-23T02:29:10;21.20;99.90
7936;DHT22;4013;49.744;8.118;2022-07-23T02:31:39;21.10;99.90
7936;DHT22;4013;49.744;8.118;2022-07-23T02:34:06;21.20;99.90
7936;DHT22;4013;49.744;8.118;2022-07-23T02:36:32;21.20;99.90
7936;DHT22;4013;49.744;8.118;2022-07-23T02:38:59;21.20;99.90
7936;DHT22;4013;49.744;8.118;2022-07-23T02:41:26;21.10;99.90
7936;DHT22;4013;49.744;8.118;2022-07-23T02:43:53;21.10;99.90
7936;DHT22;4013;49.744;8.118;2022-07-23T02:46:20;21.00;99.90
7936;DHT22;4013;49.744;8.118;2022-07-23T02:48:48;20.90;99.90
7936;DHT22;4013;49.744;8.118;2022-07-23T02:51:15;20.90;99.90
7936;DHT22;4013;49.744;8.118;2022-07-23T02:53:42;20.80;99.90
7936;DHT22;4013;49.744;8.118;2022-07-23T02:56:09;20.80;99.90
7936;DHT22;4013;49.744;8.118;2022-07-23T02:58:36;21.00;99.90
7936;DHT22;4013;49.744;8.118;2022-07-23T03:01:03;21.00;99.90
7936;DHT22;4013;49.744;8.118;2022-07-23T03:03:30;20.90;99.90
7936;DHT22;4013;49.744;8.118;2022-07-23T03:05:59;20.90;99.90
7936;DHT22;4013;49.744;8.118;2022-07-23T03:08:26;20.80;99.90
7936;DHT22;4013;49.744;8.118;2022-07-23T03:10:53;20.80;99.90
7936;DHT22;4013;49.744;8.118;2022-07-23T03:13:20;20.70;99.90
7936;DHT22;4013;49.744;8.118;2022-07-23T03:15:47;20.60;99.90
7936;DHT22;4013;49.744;8.118;2022-07-23T03:18:14;20.50;99.90
7936;DHT22;4013;49.744;8.118;2022-07-23T03:20:41;20.60;99.90
7936;DHT22;4013;49.744;8.118;2022-07-23T03:23:09;20.50;99.90
7936;DHT22;4013;49.744;8.118;2022-07-23T03:25:36;20.50;99.90
7936;DHT22;4013;49.744;8.118;2022-07-23T03:28:03;20.50;99.90
7936;DHT22;4013;49.744;8.118;2022-07-23T03:30:30;20.60;99.90
7936;DHT22;4013;49.744;8.118;2022-07-23T03:32:57;20.60;99.90
7936;DHT22;4013;49.744;8.118;2022-07-23T03:35:24;20.70;99.90
7936;DHT22;4013;49.744;8.118;2022-07-23T03:37:51;20.80;99.90
7936;DHT22;4013;49.744;8.118;2022-07-23T03:40:19;20.70;99.90
7936;DHT22;4013;49.744;8.118;2022-07-23T03:42:46;20.70;99.90
7936;DHT22;4013;49.744;8.118;2022-07-23T03:45:13;20.60;99.90
7936;DHT22;4013;49.744;8.118;2022-07-23T03:47:40;20.50;99.90
7936;DHT22;4013;49.744;8.118;2022-07-23T03:50:09;20.50;99.90
7936;DHT22;4013;49.744;8.118;2022-07-23T03:52:36;20.50;99.90
7936;DHT22;4013;49.744;8.118;2022-07-23T03:55:03;20.50;99.90
7936;DHT22;4013;49.744;8.118;2022-07-23T03:57:32;20.50;99.90
7936;DHT22;4013;49.744;8.118;2022-07-23T03:59:59;20.40;99.90
7936;DHT22;4013;49.744;8.118;2022-07-23T04:02:26;20.30;99.90
7936;DHT22;4013;49.744;8.118;2022-07-23T04:04:53;20.30;99.90
7936;DHT22;4013;49.744;8.118;2022-07-23T04:07:20;20.40;99.90
7936;DHT22;4013;49.744;8.118;2022-07-23T04:09:47;20.50;99.90
7936;DHT22;4013;49.744;8.118;2022-07-23T04:12:15;20.40;99.90
7936;DHT22;4013;49.744;8.118;2022-07-23T04:14:43;20.40;99.90
7936;DHT22;4013;49.744;8.118;2022-07-23T04:17:10;20.40;99.90
7936;DHT22;4013;49.744;8.118;2022-07-23T04:19:38;20.40;99.90
7936;DHT22;4013;49.744;8.118;2022-07-23T04:22:07;20.30;99.90
7936;DHT22;4013;49.744;8.118;2022-07-23T04:24:34;20.30;99.90
7936;DHT22;4013;49.744;8.118;2022-07-23T04:27:02;20.30;99.90
7936;DHT22;4013;49.744;8.118;2022-07-23T04:29:29;20.30;99.90
7936;DHT22;4013;49.744;8.118;2022-07-23T04:31:58;20.30;99.90
7936;DHT22;4013;49.744;8.118;2022-07-23T04:34:25;20.30;99.90
7936;DHT22;4013;49.744;8.118;2022-07-23T04:36:52;20.30;99.90
7936;DHT22;4013;49.744;8.118;2022-07-23T04:39:19;20.30;99.90
7936;DHT22;4013;49.744;8.118;2022-07-23T04:41:46;20.40;99.90
7936;DHT22;4013;49.744;8.118;2022-07-23T04:44:13;20.30;99.90
7936;DHT22;4013;49.744;8.118;2022-07-23T04:46:40;20.20;99.90
7936;DHT22;4013;49.744;8.118;2022-07-23T04:49:09;20.30;99.90
7936;DHT22;4013;49.744;8.118;2022-07-23T04:51:36;20.20;99.90
7936;DHT22;4013;49.744;8.118;2022-07-23T04:54:03;20.10;99.90
7936;DHT22;4013;49.744;8.118;2022-07-23T04:56:30;20.20;99.90
7936;DHT22;4013;49.744;8.118;2022-07-23T04:58:56;20.20;99.90
7936;DHT22;4013;49.744;8.118;2022-07-23T05:01:23;20.20;99.90
7936;DHT22;4013;49.744;8.118;2022-07-23T05:03:50;20.20;99.90
7936;DHT22;4013;49.744;8.118;2022-07-23T05:06:19;20.10;99.90
7936;DHT22;4013;49.744;8.118;2022-07-23T05:08:45;20.20;99.90
7936;DHT22;4013;49.744;8.118;2022-07-23T05:11:12;20.10;99.90
7936;DHT22;4013;49.744;8.118;2022-07-23T05:13:39;20.10;99.90
7936;DHT22;4013;49.744;8.118;2022-07-23T05:16:07;20.10;99.90
7936;DHT22;4013;49.744;8.118;2022-07-23T05:18:34;20.20;99.90
7936;DHT22;4013;49.744;8.118;2022-07-23T05:21:01;20.20;99.90
7936;DHT22;4013;49.744;8.118;2022-07-23T05:23:29;20.20;99.90
7936;DHT22;4013;49.744;8.118;2022-07-23T05:25:56;20.30;99.90
7936;DHT22;4013;49.744;8.118;2022-07-23T05:28:23;20.30;99.90
7936;DHT22;4013;49.744;8.118;2022-07-23T05:30:49;20.30;99.90
7936;DHT22;4013;49.744;8.118;2022-07-23T05:33:18;20.30;99.90
7936;DHT22;4013;49.744;8.118;2022-07-23T05:35:45;20.30;99.90
7936;DHT22;4013;49.744;8.118;2022-07-23T05:38:12;20.40;99.90
7936;DHT22;4013;49.744;8.118;2022-07-23T05:40:40;20.50;99.90
7936;DHT22;4013;49.744;8.118;2022-07-23T05:43:07;20.60;99.90
7936;DHT22;4013;49.744;8.118;2022-07-23T05:45:34;20.50;99.90
7936;DHT22;4013;49.744;8.118;2022-07-23T05:48:01;20.60;99.90
7936;DHT22;4013;49.744;8.118;2022-07-23T05:50:27;20.70;99.90
7936;DHT22;4013;49.744;8.118;2022-07-23T05:52:54;20.60;99.90
7936;DHT22;4013;49.744;8.118;2022-07-23T05:55:21;20.80;99.90
7936;DHT22;4013;49.744;8.118;2022-07-23T05:57:50;20.70;99.90
7936;DHT22;4013;49.744;8.118;2022-07-23T06:00:16;20.80;99.90
7936;DHT22;4013;49.744;8.118;2022-07-23T06:02:43;20.80;99.90
7936;DHT22;4013;49.744;8.118;2022-07-23T06:05:10;20.90;99.90
7936;DHT22;4013;49.744;8.118;2022-07-23T06:07:37;21.00;99.90
7936;DHT22;4013;49.744;8.118;2022-07-23T06:10:05;21.10;99.90
7936;DHT22;4013;49.744;8.118;2022-07-23T06:12:32;21.30;99.90
7936;DHT22;4013;49.744;8.118;2022-07-23T06:15:01;21.40;99.90
7936;DHT22;4013;49.744;8.118;2022-07-23T06:17:28;21.60;99.90
7936;DHT22;4013;49.744;8.118;2022-07-23T06:19:55;21.70;99.90
7936;DHT22;4013;49.744;8.118;2022-07-23T06:22:22;21.70;99.90
7936;DHT22;4013;49.744;8.118;2022-07-23T06:24:49;21.60;99.90
7936;DHT22;4013;49.744;8.118;2022-07-23T06:27:17;21.60;99.90
7936;DHT22;4013;49.744;8.118;2022-07-23T06:29:44;21.80;99.90
7936;DHT22;4013;49.744;8.118;2022-07-23T06:32:12;21.80;99.90
7936;DHT22;4013;49.744;8.118;2022-07-23T06:34:39;21.80;99.90
7936;DHT22;4013;49.744;8.118;2022-07-23T06:37:06;21.90;99.90
7936;DHT22;4013;49.744;8.118;2022-07-23T06:39:33;21.90;99.90
7936;DHT22;4013;49.744;8.118;2022-07-23T06:42:00;21.90;99.90
7936;DHT22;4013;49.744;8.118;2022-07-23T06:44:27;21.90;99.90
7936;DHT22;4013;49.744;8.118;2022-07-23T06:46:54;22.10;99.90
7936;DHT22;4013;49.744;8.118;2022-07-23T06:49:22;22.20;99.90
7936;DHT22;4013;49.744;8.118;2022-07-23T06:51:49;22.20;99.90
7936;DHT22;4013;49.744;8.118;2022-07-23T06:54:16;22.20;99.90
7936;DHT22;4013;49.744;8.118;2022-07-23T06:56:43;22.30;99.90
7936;DHT22;4013;49.744;8.118;2022-07-23T06:59:10;22.20;99.90
7936;DHT22;4013;49.744;8.118;2022-07-23T07:01:37;22.30;99.90
7936;DHT22;4013;49.744;8.118;2022-07-23T07:04:04;22.40;99.90
7936;DHT22;4013;49.744;8.118;2022-07-23T07:06:32;22.60;99.90
7936;DHT22;4013;49.744;8.118;2022-07-23T07:08:59;22.70;99.90
7936;DHT22;4013;49.744;8.118;2022-07-23T07:11:26;22.60;99.90
7936;DHT22;4013;49.744;8.118;2022-07-23T07:13:53;22.60;99.90
7936;DHT22;4013;49.744;8.118;2022-07-23T07:16:20;22.60;99.90
7936;DHT22;4013;49.744;8.118;2022-07-23T07:18:47;22.60;99.90
7936;DHT22;4013;49.744;8.118;2022-07-23T07:21:14;22.60;99.90
7936;DHT22;4013;49.744;8.118;2022-07-23T07:23:42;22.70;99.90
7936;DHT22;4013;49.744;8.118;2022-07-23T07:26:09;22.80;99.90
7936;DHT22;4013;49.744;8.118;2022-07-23T07:28:36;22.80;99.90
7936;DHT22;4013;49.744;8.118;2022-07-23T07:31:03;22.70;99.90
7936;DHT22;4013;49.744;8.118;2022-07-23T07:33:30;22.80;99.90
7936;DHT22;4013;49.744;8.118;2022-07-23T07:35:57;22.70;99.90
7936;DHT22;4013;49.744;8.118;2022-07-23T07:38:24;22.70;99.90
7936;DHT22;4013;49.744;8.118;2022-07-23T07:40:52;22.60;99.90
7936;DHT22;4013;49.744;8.118;2022-07-23T07:43:19;22.60;99.90
7936;DHT22;4013;49.744;8.118;2022-07-23T07:45:46;22.80;99.90
7936;DHT22;4013;49.744;8.118;2022-07-23T07:48:13;22.90;99.90
7936;DHT22;4013;49.744;8.118;2022-07-23T07:50:40;23.10;99.90
7936;DHT22;4013;49.744;8.118;2022-07-23T07:53:07;23.10;99.90
7936;DHT22;4013;49.744;8.118;2022-07-23T07:55:34;23.20;99.90
7936;DHT22;4013;49.744;8.118;2022-07-23T07:58:03;23.30;99.90
7936;DHT22;4013;49.744;8.118;2022-07-23T08:00:29;23.20;99.90
7936;DHT22;4013;49.744;8.118;2022-07-23T08:02:57;23.30;99.90
7936;DHT22;4013;49.744;8.118;2022-07-23T08:05:25;23.50;99.90
7936;DHT22;4013;49.744;8.118;2022-07-23T08:07:52;23.60;99.90
7936;DHT22;4013;49.744;8.118;2022-07-23T08:10:20;23.40;99.90
7936;DHT22;4013;49.744;8.118;2022-07-23T08:12:48;23.40;99.90
7936;DHT22;4013;49.744;8.118;2022-07-23T08:15:18;23.50;99.90
7936;DHT22;4013;49.744;8.118;2022-07-23T08:17:46;23.60;99.90
7936;DHT22;4013;49.744;8.118;2022-07-23T08:20:14;23.70;99.90
7936;DHT22;4013;49.744;8.118;2022-07-23T08:22:46;23.60;99.90
7936;DHT22;4013;49.744;8.118;2022-07-23T08:25:14;23.60;99.90
7936;DHT22;4013;49.744;8.118;2022-07-23T08:27:41;23.70;99.90
7936;DHT22;4013;49.744;8.118;2022-07-23T08:30:08;23.90;99.90
7936;DHT22;4013;49.744;8.118;2022-07-23T08:32:52;24.00;99.90
7936;DHT22;4013;49.744;8.118;2022-07-23T08:35:23;24.00;99.90
7936;DHT22;4013;49.744;8.118;2022-07-23T08:37:50;24.00;99.90
7936;DHT22;4013;49.744;8.118;2022-07-23T08:40:18;23.80;99.90
7936;DHT22;4013;49.744;8.118;2022-07-23T08:42:47;23.80;99.90
7936;DHT22;4013;49.744;8.118;2022-07-23T08:45:16;23.80;99.90
7936;DHT22;4013;49.744;8.118;2022-07-23T08:47:44;23.80;99.90
7936;DHT22;4013;49.744;8.118;2022-07-23T08:50:13;23.90;99.90
7936;DHT22;4013;49.744;8.118;2022-07-23T08:52:40;23.90;99.90
7936;DHT22;4013;49.744;8.118;2022-07-23T08:55:08;23.80;99.90
7936;DHT22;4013;49.744;8.118;2022-07-23T08:57:35;24.00;99.90
7936;DHT22;4013;49.744;8.118;2022-07-23T09:00:03;24.00;99.90
7936;DHT22;4013;49.744;8.118;2022-07-23T09:02:30;24.00;99.90
7936;DHT22;4013;49.744;8.118;2022-07-23T09:04:57;24.10;99.90
7936;DHT22;4013;49.744;8.118;2022-07-23T09:07:25;23.90;99.90
7936;DHT22;4013;49.744;8.118;2022-07-23T09:10:06;24.00;99.90
7936;DHT22;4013;49.744;8.118;2022-07-23T09:12:33;24.30;99.90
7936;DHT22;4013;49.744;8.118;2022-07-23T09:15:05;24.30;99.90
7936;DHT22;4013;49.744;8.118;2022-07-23T09:17:37;24.30;99.90
7936;DHT22;4013;49.744;8.118;2022-07-23T09:20:10;24.40;99.90
7936;DHT22;4013;49.744;8.118;2022-07-23T09:22:39;24.30;99.90
7936;DHT22;4013;49.744;8.118;2022-07-23T09:25:09;24.40;99.90
7936;DHT22;4013;49.744;8.118;2022-07-23T09:27:48;24.50;99.90
7936;DHT22;4013;49.744;8.118;2022-07-23T09:30:15;24.80;99.90
7936;DHT22;4013;49.744;8.118;2022-07-23T09:32:43;24.90;99.90
7936;DHT22;4013;49.744;8.118;2022-07-23T09:35:10;24.90;99.90
7936;DHT22;4013;49.744;8.118;2022-07-23T09:37:38;24.80;99.90
7936;DHT22;4013;49.744;8.118;2022-07-23T09:40:07;24.80;99.90
7936;DHT22;4013;49.744;8.118;2022-07-23T09:42:35;24.90;99.90
7936;DHT22;4013;49.744;8.118;2022-07-23T09:45:02;24.90;99.90
7936;DHT22;4013;49.744;8.118;2022-07-23T09:47:31;25.00;99.90
7936;DHT22;4013;49.744;8.118;2022-07-23T09:50:00;25.00;99.90
7936;DHT22;4013;49.744;8.118;2022-07-23T09:52:30;25.00;99.90
7936;DHT22;4013;49.744;8.118;2022-07-23T09:55:00;25.00;99.90
7936;DHT22;4013;49.744;8.118;2022-07-23T09:57:28;25.00;99.90
7936;DHT22;4013;49.744;8.118;2022-07-23T09:59:58;25.00;99.90
7936;DHT22;4013;49.744;8.118;2022-07-23T10:02:28;25.10;99.90
7936;DHT22;4013;49.744;8.118;2022-07-23T10:04:55;25.10;99.90
7936;DHT22;4013;49.744;8.118;2022-07-23T10:07:22;25.10;99.90
7936;DHT22;4013;49.744;8.118;2022-07-23T10:09:50;25.30;99.90
7936;DHT22;4013;49.744;8.118;2022-07-23T10:12:19;25.20;99.90
7936;DHT22;4013;49.744;8.118;2022-07-23T10:15:00;25.20;99.90
7936;DHT22;4013;49.744;8.118;2022-07-23T10:17:28;25.30;99.90
7936;DHT22;4013;49.744;8.118;2022-07-23T10:19:55;25.50;99.90
7936;DHT22;4013;49.744;8.118;2022-07-23T10:22:24;25.60;99.90
7936;DHT22;4013;49.744;8.118;2022-07-23T10:25:10;25.80;99.90
7936;DHT22;4013;49.744;8.118;2022-07-23T10:28:10;25.90;99.90
7936;DHT22;4013;49.744;8.118;2022-07-23T10:30:45;26.00;99.90
7936;DHT22;4013;49.744;8.118;2022-07-23T10:33:27;25.70;99.90
7936;DHT22;4013;49.744;8.118;2022-07-23T10:36:02;25.60;99.90
7936;DHT22;4013;49.744;8.118;2022-07-23T10:38:34;25.70;99.90
7936;DHT22;4013;49.744;8.118;2022-07-23T10:41:04;25.80;99.90
7936;DHT22;4013;49.744;8.118;2022-07-23T10:43:33;25.70;99.90
7936;DHT22;4013;49.744;8.118;2022-07-23T10:46:21;25.70;99.90
7936;DHT22;4013;49.744;8.118;2022-07-23T10:49:21;25.70;99.90
7936;DHT22;4013;49.744;8.118;2022-07-23T10:52:17;25.70;99.90
7936;DHT22;4013;49.744;8.118;2022-07-23T10:54:48;25.60;99.90
7936;DHT22;4013;49.744;8.118;2022-07-23T10:57:17;25.70;99.90
7936;DHT22;4013;49.744;8.118;2022-07-23T11:00:15;25.90;99.90
7936;DHT22;4013;49.744;8.118;2022-07-23T11:02:44;26.00;99.90
7936;DHT22;4013;49.744;8.118;2022-07-23T11:05:13;25.90;99.90
7936;DHT22;4013;49.744;8.118;2022-07-23T11:10:50;26.10;99.90
7936;DHT22;4013;49.744;8.118;2022-07-23T11:13:41;26.20;99.90
7936;DHT22;4013;49.744;8.118;2022-07-23T11:16:14;26.30;99.90
7936;DHT22;4013;49.744;8.118;2022-07-23T11:19:06;26.30;99.90
7936;DHT22;4013;49.744;8.118;2022-07-23T11:21:49;26.20;99.90
7936;DHT22;4013;49.744;8.118;2022-07-23T11:24:20;26.20;99.90
7936;DHT22;4013;49.744;8.118;2022-07-23T11:26:51;26.10;99.90
7936;DHT22;4013;49.744;8.118;2022-07-23T11:29:47;26.00;99.90
7936;DHT22;4013;49.744;8.118;2022-07-23T11:32:41;26.10;99.90
7936;DHT22;4013;49.744;8.118;2022-07-23T11:35:22;26.00;99.90
7936;DHT22;4013;49.744;8.118;2022-07-23T11:37:51;26.00;99.90
7936;DHT22;4013;49.744;8.118;2022-07-23T11:40:24;26.10;99.90
7936;DHT22;4013;49.744;8.118;2022-07-23T11:42:53;26.10;99.90
7936;DHT22;4013;49.744;8.118;2022-07-23T11:45:21;26.20;99.90
7936;DHT22;4013;49.744;8.118;2022-07-23T11:47:50;26.30;99.90
7936;DHT22;4013;49.744;8.118;2022-07-23T11:50:17;26.50;99.90
7936;DHT22;4013;49.744;8.118;2022-07-23T11:52:44;26.70;99.90
7936;DHT22;4013;49.744;8.118;2022-07-23T11:55:11;26.70;99.90
7936;DHT22;4013;49.744;8.118;2022-07-23T11:57:42;26.70;99.90
7936;DHT22;4013;49.744;8.118;2022-07-23T12:00:11;26.80;99.90
7936;DHT22;4013;49.744;8.118;2022-07-23T12:02:38;26.70;99.90
7936;DHT22;4013;49.744;8.118;2022-07-23T12:05:08;26.60;99.90
7936;DHT22;4013;49.744;8.118;2022-07-23T12:07:38;26.60;99.90
7936;DHT22;4013;49.744;8.118;2022-07-23T12:10:11;26.60;99.90
7936;DHT22;4013;49.744;8.118;2022-07-23T12:12:40;26.70;99.90
7936;DHT22;4013;49.744;8.118;2022-07-23T12:15:08;26.70;99.90
7936;DHT22;4013;49.744;8.118;2022-07-23T12:17:38;26.80;99.90
7936;DHT22;4013;49.744;8.118;2022-07-23T12:20:08;26.90;99.90
7936;DHT22;4013;49.744;8.118;2022-07-23T12:22:38;27.10;99.90
7936;DHT22;4013;49.744;8.118;2022-07-23T12:25:09;27.00;99.90
7936;DHT22;4013;49.744;8.118;2022-07-23T12:27:36;27.10;99.90
7936;DHT22;4013;49.744;8.118;2022-07-23T12:30:24;27.20;99.90
7936;DHT22;4013;49.744;8.118;2022-07-23T12:32:52;27.20;99.90
7936;DHT22;4013;49.744;8.118;2022-07-23T12:35:22;27.30;99.90
7936;DHT22;4013;49.744;8.118;2022-07-23T12:37:50;27.40;99.90
7936;DHT22;4013;49.744;8.118;2022-07-23T12:40:29;27.60;99.90
7936;DHT22;4013;49.744;8.118;2022-07-23T12:42:58;27.60;99.90
7936;DHT22;4013;49.744;8.118;2022-07-23T12:45:26;27.80;99.90
7936;DHT22;4013;49.744;8.118;2022-07-23T12:48:01;27.80;99.90
7936;DHT22;4013;49.744;8.118;2022-07-23T12:50:36;28.00;99.90
7936;DHT22;4013;49.744;8.118;2022-07-23T12:53:04;28.10;99.90
7936;DHT22;4013;49.744;8.118;2022-07-23T12:55:32;28.00;99.90
7936;DHT22;4013;49.744;8.118;2022-07-23T12:58:07;28.00;99.90
7936;DHT22;4013;49.744;8.118;2022-07-23T13:01:02;28.10;99.90
7936;DHT22;4013;49.744;8.118;2022-07-23T13:03:35;28.20;99.90
7936;DHT22;4013;49.744;8.118;2022-07-23T13:06:06;28.20;99.90
7936;DHT22;4013;49.744;8.118;2022-07-23T13:08:34;28.50;99.80
7936;DHT22;4013;49.744;8.118;2022-07-23T13:11:02;28.50;99.20
7936;DHT22;4013;49.744;8.118;2022-07-23T13:13:31;28.40;98.70
7936;DHT22;4013;49.744;8.118;2022-07-23T13:15:59;28.40;99.90
7936;DHT22;4013;49.744;8.118;2022-07-23T13:18:26;28.30;98.20
7936;DHT22;4013;49.744;8.118;2022-07-23T13:20:54;28.30;98.40
7936;DHT22;4013;49.744;8.118;2022-07-23T13:23:22;28.10;98.40
7936;DHT22;4013;49.744;8.118;2022-07-23T13:25:50;27.90;99.40
7936;DHT22;4013;49.744;8.118;2022-07-23T13:28:19;27.90;99.80
7936;DHT22;4013;49.744;8.118;2022-07-23T13:30:46;27.60;99.80
7936;DHT22;4013;49.744;8.118;2022-07-23T13:33:15;27.50;99.90
7936;DHT22;4013;49.744;8.118;2022-07-23T13:35:42;27.60;99.90
7936;DHT22;4013;49.744;8.118;2022-07-23T13:38:09;27.60;99.90
7936;DHT22;4013;49.744;8.118;2022-07-23T13:40:40;27.90;99.90
7936;DHT22;4013;49.744;8.118;2022-07-23T13:43:08;28.00;99.90
7936;DHT22;4013;49.744;8.118;2022-07-23T13:45:35;27.90;99.70
7936;DHT22;4013;49.744;8.118;2022-07-23T13:48:02;28.00;98.80
7936;DHT22;4013;49.744;8.118;2022-07-23T13:50:29;28.00;98.20
7936;DHT22;4013;49.744;8.118;2022-07-23T13:52:56;28.30;96.50
7936;DHT22;4013;49.744;8.118;2022-07-23T13:55:23;28.30;96.40
7936;DHT22;4013;49.744;8.118;2022-07-23T13:57:51;28.20;97.20
7936;DHT22;4013;49.744;8.118;2022-07-23T14:00:18;28.00;97.80
7936;DHT22;4013;49.744;8.118;2022-07-23T14:02:45;28.10;99.10
7936;DHT22;4013;49.744;8.118;2022-07-23T14:05:12;28.30;98.30
7936;DHT22;4013;49.744;8.118;2022-07-23T14:07:39;28.50;96.10
7936;DHT22;4013;49.744;8.118;2022-07-23T14:10:08;28.70;96.00
7936;DHT22;4013;49.744;8.118;2022-07-23T14:12:35;29.00;94.80
7936;DHT22;4013;49.744;8.118;2022-07-23T14:15:06;29.30;94.60
7936;DHT22;4013;49.744;8.118;2022-07-23T14:17:35;29.30;92.50
7936;DHT22;4013;49.744;8.118;2022-07-23T14:20:03;29.20;92.30
7936;DHT22;4013;49.744;8.118;2022-07-23T14:22:30;29.10;91.70
7936;DHT22;4013;49.744;8.118;2022-07-23T14:24:57;29.00;92.50
7936;DHT22;4013;49.744;8.118;2022-07-23T14:27:24;29.00;91.40
7936;DHT22;4013;49.744;8.118;2022-07-23T14:29:52;28.90;92.30
7936;DHT22;4013;49.744;8.118;2022-07-23T14:32:20;28.70;91.80
7936;DHT22;4013;49.744;8.118;2022-07-23T14:34:48;28.60;93.40
7936;DHT22;4013;49.744;8.118;2022-07-23T14:37:15;28.50;93.00
7936;DHT22;4013;49.744;8.118;2022-07-23T14:39:43;28.40;94.30
7936;DHT22;4013;49.744;8.118;2022-07-23T14:42:13;28.30;93.20
7936;DHT22;4013;49.744;8.118;2022-07-23T14:44:40;28.40;93.30
7936;DHT22;4013;49.744;8.118;2022-07-23T14:47:08;28.40;94.00
7936;DHT22;4013;49.744;8.118;2022-07-23T14:49:37;28.50;93.50
7936;DHT22;4013;49.744;8.118;2022-07-23T14:52:05;28.50;93.10
7936;DHT22;4013;49.744;8.118;2022-07-23T14:54:32;28.40;92.90
7936;DHT22;4013;49.744;8.118;2022-07-23T14:57:01;28.40;94.60
7936;DHT22;4013;49.744;8.118;2022-07-23T14:59:29;28.30;93.40
7936;DHT22;4013;49.744;8.118;2022-07-23T15:01:57;28.40;92.30
7936;DHT22;4013;49.744;8.118;2022-07-23T15:04:24;28.30;92.90
7936;DHT22;4013;49.744;8.118;2022-07-23T15:06:52;28.30;92.50
7936;DHT22;4013;49.744;8.118;2022-07-23T15:09:20;28.30;93.20
7936;DHT22;4013;49.744;8.118;2022-07-23T15:11:47;28.30;93.30
7936;DHT22;4013;49.744;8.118;2022-07-23T15:14:14;28.30;95.70
7936;DHT22;4013;49.744;8.118;2022-07-23T15:16:41;28.40;93.80
7936;DHT22;4013;49.744;8.118;2022-07-23T15:19:08;28.50;92.30
7936;DHT22;4013;49.744;8.118;2022-07-23T15:21:34;28.50;92.80
7936;DHT22;4013;49.744;8.118;2022-07-23T15:24:03;28.70;91.30
7936;DHT22;4013;49.744;8.118;2022-07-23T15:26:30;28.70;90.20
7936;DHT22;4013;49.744;8.118;2022-07-23T15:28:58;28.80;90.80
7936;DHT22;4013;49.744;8.118;2022-07-23T15:31:25;28.80;91.60
7936;DHT22;4013;49.744;8.118;2022-07-23T15:33:52;28.80;91.00
7936;DHT22;4013;49.744;8.118;2022-07-23T15:36:19;28.70;90.70
7936;DHT22;4013;49.744;8.118;2022-07-23T15:38:47;28.80;91.20
7936;DHT22;4013;49.744;8.118;2022-07-23T15:41:15;28.70;91.00
7936;DHT22;4013;49.744;8.118;2022-07-23T15:43:43;28.70;90.90
7936;DHT22;4013;49.744;8.118;2022-07-23T15:46:10;28.50;90.40
7936;DHT22;4013;49.744;8.118;2022-07-23T15:48:37;28.50;91.00
7936;DHT22;4013;49.744;8.118;2022-07-23T15:51:04;28.40;92.10
7936;DHT22;4013;49.744;8.118;2022-07-23T15:53:32;28.30;91.30
7936;DHT22;4013;49.744;8.118;2022-07-23T15:55:59;28.20;90.70
7936;DHT22;4013;49.744;8.118;2022-07-23T15:58:28;28.20;90.30
7936;DHT22;4013;49.744;8.118;2022-07-23T16:00:56;28.10;91.50
7936;DHT22;4013;49.744;8.118;2022-07-23T16:03:23;28.00;90.90
7936;DHT22;4013;49.744;8.118;2022-07-23T16:05:50;28.00;92.20
7936;DHT22;4013;49.744;8.118;2022-07-23T16:08:17;28.00;90.90
7936;DHT22;4013;49.744;8.118;2022-07-23T16:10:44;28.00;90.60
7936;DHT22;4013;49.744;8.118;2022-07-23T16:13:11;27.90;90.90
7936;DHT22;4013;49.744;8.118;2022-07-23T16:15:39;27.90;90.10